Pringle, SD (57773)

1:49 AM MST on February 09, 2016 (GMT -0700)
RAWS | | Change Station
CLOSE
Current Station
Personal Weather Station
Location: Pringle, SD
Elevation: 4110 ft
Nearby Weather Stations

Elev 4110 ft 43.56 °N, 103.49 °W | Updated 1 hour ago

Clear
Clear
29.0 °F
Feels Like 25 °F
N
4.0
Wind Variable Wind from NNW
Gusts 6.0 mph

Today
High -- | Low -- °F
--% Chance of Precip.
Yesterday
High -- | Low -- °F
Precip. -- in
Pressure 30.21 in
Visibility 10.0 miles
Clouds Clear
Windchill 25 °F
Dew Point 12.0 °F
Humidity 48%
Rainfall in
Snow Depth Not available.
7:01 AM 5:16 PM
New Moon, 1% visible
METAR KCUT 090753Z AUTO 33008G17KT 10SM CLR 02/M05 A3017 RMK AO2 SLP228 T00171050
Pressure 30.21 in
Visibility 10.0 miles
Clouds Clear
Windchill 25 °F
Dew Point 12.0 °F
Humidity 48%
Rainfall in
Snow Depth Not available.
7:01 AM 5:16 PM
New Moon, 1% visible
METAR KCUT 090753Z AUTO 33008G17KT 10SM CLR 02/M05 A3017 RMK AO2 SLP228 T00171050

10-Day Weather Forecast

Almanac

Astronomy

Feb. 09, 2016 Rise Set
Actual Time
Civil Twilight
Nautical Twilight
Astronomical Twilight
Moon
Length of Visible Light
Length of Day
Tomorrow will be .
, % of the Moon is Illuminated

Today's Extremes

State Highs State Lows

Community

WunderPhotos

Upload Photos

1,891,571 photos uploaded!

WunderBlog® & News

Nearby

Air Quality

  Air Quality AQ Index Pollutant
Not available.

Snow Depth

Station Depth Elevation

Earthquake Activity

City Distance Mag. Time & Date
Minimum magnitude displayed is 2.5.

Coastal Water Temperatures

Place Temperature

Stations

Nearby Weather Stations

Station Location Temp. Windchill Dew Point Humidity Wind Precip. Elev Updated Type
                   

Watches & Warnings

There are currently no watches in effect.